sensor_id;sensor_type;location;lat;lon;timestamp;P1;durP1;ratioP1;P2;durP2;ratioP2
62582;SDS011;48641;51.676;5.808;2023-03-26T00:01:26;16.85;;;10.00;;
62582;SDS011;48641;51.676;5.808;2023-03-26T00:03:53;16.85;;;10.10;;
62582;SDS011;48641;51.676;5.808;2023-03-26T00:06:22;16.40;;;10.05;;
62582;SDS011;48641;51.676;5.808;2023-03-26T00:08:49;15.95;;;9.70;;
62582;SDS011;48641;51.676;5.808;2023-03-26T00:11:17;14.70;;;9.35;;
62582;SDS011;48641;51.676;5.808;2023-03-26T00:13:44;14.52;;;9.07;;
62582;SDS011;48641;51.676;5.808;2023-03-26T00:16:11;15.45;;;9.13;;
62582;SDS011;48641;51.676;5.808;2023-03-26T00:18:39;13.70;;;8.27;;
62582;SDS011;48641;51.676;5.808;2023-03-26T00:21:06;16.13;;;8.60;;
62582;SDS011;48641;51.676;5.808;2023-03-26T00:23:33;13.27;;;8.48;;
62582;SDS011;48641;51.676;5.808;2023-03-26T00:26:00;14.80;;;9.30;;
62582;SDS011;48641;51.676;5.808;2023-03-26T00:28:27;15.27;;;9.20;;
62582;SDS011;48641;51.676;5.808;2023-03-26T00:30:57;14.73;;;8.75;;
62582;SDS011;48641;51.676;5.808;2023-03-26T00:33:25;14.82;;;8.82;;
62582;SDS011;48641;51.676;5.808;2023-03-26T00:35:51;15.32;;;8.60;;
62582;SDS011;48641;51.676;5.808;2023-03-26T00:38:19;17.48;;;9.40;;
62582;SDS011;48641;51.676;5.808;2023-03-26T00:40:46;15.30;;;8.57;;
62582;SDS011;48641;51.676;5.808;2023-03-26T00:43:16;14.05;;;8.60;;
62582;SDS011;48641;51.676;5.808;2023-03-26T00:45:46;15.55;;;8.23;;
62582;SDS011;48641;51.676;5.808;2023-03-26T00:48:17;13.77;;;8.60;;
62582;SDS011;48641;51.676;5.808;2023-03-26T00:50:43;12.63;;;7.85;;
62582;SDS011;48641;51.676;5.808;2023-03-26T00:53:10;16.17;;;8.30;;
62582;SDS011;48641;51.676;5.808;2023-03-26T00:55:38;13.60;;;7.78;;
62582;SDS011;48641;51.676;5.808;2023-03-26T00:58:10;12.63;;;7.45;;
62582;SDS011;48641;51.676;5.808;2023-03-26T01:00:38;15.88;;;8.05;;
62582;SDS011;48641;51.676;5.808;2023-03-26T01:03:13;15.32;;;8.73;;
62582;SDS011;48641;51.676;5.808;2023-03-26T01:05:42;13.20;;;7.45;;
62582;SDS011;48641;51.676;5.808;2023-03-26T01:10:52;12.52;;;7.63;;
62582;SDS011;48641;51.676;5.808;2023-03-26T01:13:27;12.63;;;7.60;;
62582;SDS011;48641;51.676;5.808;2023-03-26T01:15:55;13.27;;;7.53;;
62582;SDS011;48641;51.676;5.808;2023-03-26T01:18:22;12.70;;;7.38;;
62582;SDS011;48641;51.676;5.808;2023-03-26T01:20:50;13.32;;;7.65;;
62582;SDS011;48641;51.676;5.808;2023-03-26T01:23:23;13.75;;;7.35;;
62582;SDS011;48641;51.676;5.808;2023-03-26T01:26:00;14.38;;;7.20;;
62582;SDS011;48641;51.676;5.808;2023-03-26T01:28:34;14.25;;;7.13;;
62582;SDS011;48641;51.676;5.808;2023-03-26T01:31:13;12.63;;;6.95;;
62582;SDS011;48641;51.676;5.808;2023-03-26T01:34:12;13.07;;;7.13;;
62582;SDS011;48641;51.676;5.808;2023-03-26T01:36:47;13.27;;;7.15;;
62582;SDS011;48641;51.676;5.808;2023-03-26T01:39:23;14.18;;;6.97;;
62582;SDS011;48641;51.676;5.808;2023-03-26T01:42:02;12.02;;;6.40;;
62582;SDS011;48641;51.676;5.808;2023-03-26T01:44:37;12.85;;;6.75;;
62582;SDS011;48641;51.676;5.808;2023-03-26T01:47:09;12.48;;;6.88;;
62582;SDS011;48641;51.676;5.808;2023-03-26T01:49:37;12.18;;;6.30;;
62582;SDS011;48641;51.676;5.808;2023-03-26T01:52:05;14.05;;;6.63;;
62582;SDS011;48641;51.676;5.808;2023-03-26T01:54:36;12.05;;;6.47;;
62582;SDS011;48641;51.676;5.808;2023-03-26T02:05:29;12.65;;;6.57;;
62582;SDS011;48641;51.676;5.808;2023-03-26T02:08:02;11.20;;;6.20;;
62582;SDS011;48641;51.676;5.808;2023-03-26T02:10:47;12.73;;;6.10;;
62582;SDS011;48641;51.676;5.808;2023-03-26T02:13:19;11.57;;;6.18;;
62582;SDS011;48641;51.676;5.808;2023-03-26T02:15:58;13.20;;;6.53;;
62582;SDS011;48641;51.676;5.808;2023-03-26T02:18:26;11.05;;;5.25;;
62582;SDS011;48641;51.676;5.808;2023-03-26T02:21:16;11.57;;;5.45;;
62582;SDS011;48641;51.676;5.808;2023-03-26T02:23:44;11.50;;;6.38;;
62582;SDS011;48641;51.676;5.808;2023-03-26T02:26:12;11.55;;;5.35;;
62582;SDS011;48641;51.676;5.808;2023-03-26T02:28:39;14.98;;;6.63;;
62582;SDS011;48641;51.676;5.808;2023-03-26T02:31:05;9.30;;;5.47;;
62582;SDS011;48641;51.676;5.808;2023-03-26T02:33:35;11.75;;;5.55;;
62582;SDS011;48641;51.676;5.808;2023-03-26T02:36:02;10.00;;;5.13;;
62582;SDS011;48641;51.676;5.808;2023-03-26T02:38:28;12.63;;;5.63;;
62582;SDS011;48641;51.676;5.808;2023-03-26T02:40:59;10.77;;;5.20;;
62582;SDS011;48641;51.676;5.808;2023-03-26T02:43:27;13.15;;;5.28;;
62582;SDS011;48641;51.676;5.808;2023-03-26T02:45:53;9.80;;;5.03;;
62582;SDS011;48641;51.676;5.808;2023-03-26T02:48:18;12.00;;;5.38;;
62582;SDS011;48641;51.676;5.808;2023-03-26T02:50:44;11.27;;;5.15;;
62582;SDS011;48641;51.676;5.808;2023-03-26T02:53:14;9.13;;;4.68;;
62582;SDS011;48641;51.676;5.808;2023-03-26T02:58:08;9.57;;;4.70;;
62582;SDS011;48641;51.676;5.808;2023-03-26T03:00:36;10.63;;;4.68;;
62582;SDS011;48641;51.676;5.808;2023-03-26T03:03:01;10.10;;;4.90;;
62582;SDS011;48641;51.676;5.808;2023-03-26T03:05:29;10.10;;;5.00;;
62582;SDS011;48641;51.676;5.808;2023-03-26T03:07:56;11.35;;;5.00;;
62582;SDS011;48641;51.676;5.808;2023-03-26T03:10:23;11.32;;;5.07;;
62582;SDS011;48641;51.676;5.808;2023-03-26T03:12:49;10.95;;;5.13;;
62582;SDS011;48641;51.676;5.808;2023-03-26T03:15:15;10.10;;;4.70;;
62582;SDS011;48641;51.676;5.808;2023-03-26T03:17:41;10.15;;;5.05;;
62582;SDS011;48641;51.676;5.808;2023-03-26T03:20:07;10.43;;;4.28;;
62582;SDS011;48641;51.676;5.808;2023-03-26T03:22:36;10.90;;;4.90;;
62582;SDS011;48641;51.676;5.808;2023-03-26T03:25:03;11.23;;;5.07;;
62582;SDS011;48641;51.676;5.808;2023-03-26T03:27:32;10.57;;;5.05;;
62582;SDS011;48641;51.676;5.808;2023-03-26T03:29:58;10.38;;;4.18;;
62582;SDS011;48641;51.676;5.808;2023-03-26T03:32:24;8.88;;;4.07;;
62582;SDS011;48641;51.676;5.808;2023-03-26T03:34:51;10.68;;;4.78;;
62582;SDS011;48641;51.676;5.808;2023-03-26T03:37:17;10.00;;;4.32;;
62582;SDS011;48641;51.676;5.808;2023-03-26T03:39:44;9.73;;;4.25;;
62582;SDS011;48641;51.676;5.808;2023-03-26T03:42:10;11.60;;;4.68;;
62582;SDS011;48641;51.676;5.808;2023-03-26T03:44:36;10.20;;;4.50;;
62582;SDS011;48641;51.676;5.808;2023-03-26T03:47:01;9.55;;;4.28;;
62582;SDS011;48641;51.676;5.808;2023-03-26T03:49:27;9.30;;;3.70;;
62582;SDS011;48641;51.676;5.808;2023-03-26T03:51:53;9.27;;;3.92;;
62582;SDS011;48641;51.676;5.808;2023-03-26T03:54:18;9.90;;;3.67;;
62582;SDS011;48641;51.676;5.808;2023-03-26T03:56:44;9.20;;;4.57;;
62582;SDS011;48641;51.676;5.808;2023-03-26T03:59:11;10.73;;;4.18;;
62582;SDS011;48641;51.676;5.808;2023-03-26T04:01:37;10.27;;;4.28;;
62582;SDS011;48641;51.676;5.808;2023-03-26T04:04:02;9.65;;;4.20;;
62582;SDS011;48641;51.676;5.808;2023-03-26T04:06:28;9.88;;;4.10;;
62582;SDS011;48641;51.676;5.808;2023-03-26T04:08:54;9.82;;;3.85;;
62582;SDS011;48641;51.676;5.808;2023-03-26T04:11:20;9.93;;;3.65;;
62582;SDS011;48641;51.676;5.808;2023-03-26T04:13:47;10.38;;;4.03;;
62582;SDS011;48641;51.676;5.808;2023-03-26T04:16:12;8.95;;;3.78;;
62582;SDS011;48641;51.676;5.808;2023-03-26T04:18:38;9.18;;;4.10;;
62582;SDS011;48641;51.676;5.808;2023-03-26T04:21:04;11.05;;;4.05;;
62582;SDS011;48641;51.676;5.808;2023-03-26T04:23:33;9.52;;;3.55;;
62582;SDS011;48641;51.676;5.808;2023-03-26T04:26:00;11.27;;;3.90;;
62582;SDS011;48641;51.676;5.808;2023-03-26T04:30:57;8.80;;;3.75;;
62582;SDS011;48641;51.676;5.808;2023-03-26T04:33:30;8.60;;;3.78;;
62582;SDS011;48641;51.676;5.808;2023-03-26T04:35:58;9.05;;;3.75;;
62582;SDS011;48641;51.676;5.808;2023-03-26T04:38:28;8.55;;;3.58;;
62582;SDS011;48641;51.676;5.808;2023-03-26T04:40:57;8.88;;;3.70;;
62582;SDS011;48641;51.676;5.808;2023-03-26T04:43:24;7.78;;;3.45;;
62582;SDS011;48641;51.676;5.808;2023-03-26T04:45:51;10.05;;;3.85;;
62582;SDS011;48641;51.676;5.808;2023-03-26T04:48:17;10.23;;;3.90;;
62582;SDS011;48641;51.676;5.808;2023-03-26T04:50:44;8.93;;;3.33;;
62582;SDS011;48641;51.676;5.808;2023-03-26T04:53:12;9.35;;;3.47;;
62582;SDS011;48641;51.676;5.808;2023-03-26T04:55:45;7.97;;;3.33;;
62582;SDS011;48641;51.676;5.808;2023-03-26T04:58:21;8.75;;;4.07;;
62582;SDS011;48641;51.676;5.808;2023-03-26T05:00:57;8.35;;;3.35;;
62582;SDS011;48641;51.676;5.808;2023-03-26T05:03:25;9.18;;;3.22;;
62582;SDS011;48641;51.676;5.808;2023-03-26T05:06:00;9.02;;;3.60;;
62582;SDS011;48641;51.676;5.808;2023-03-26T05:08:26;8.27;;;3.65;;
62582;SDS011;48641;51.676;5.808;2023-03-26T05:10:53;7.97;;;3.38;;
62582;SDS011;48641;51.676;5.808;2023-03-26T05:13:20;8.88;;;3.15;;
62582;SDS011;48641;51.676;5.808;2023-03-26T05:15:46;7.13;;;3.10;;
62582;SDS011;48641;51.676;5.808;2023-03-26T05:18:12;8.30;;;3.28;;
62582;SDS011;48641;51.676;5.808;2023-03-26T05:20:38;9.20;;;3.17;;
62582;SDS011;48641;51.676;5.808;2023-03-26T05:23:03;8.32;;;3.10;;
62582;SDS011;48641;51.676;5.808;2023-03-26T05:25:29;7.90;;;3.33;;
62582;SDS011;48641;51.676;5.808;2023-03-26T05:27:55;7.63;;;3.00;;
62582;SDS011;48641;51.676;5.808;2023-03-26T05:30:21;7.80;;;2.97;;
62582;SDS011;48641;51.676;5.808;2023-03-26T05:32:47;7.97;;;3.08;;
62582;SDS011;48641;51.676;5.808;2023-03-26T05:35:13;8.27;;;2.85;;
62582;SDS011;48641;51.676;5.808;2023-03-26T05:37:43;8.55;;;2.80;;
62582;SDS011;48641;51.676;5.808;2023-03-26T05:40:09;7.32;;;3.03;;
62582;SDS011;48641;51.676;5.808;2023-03-26T05:42:38;8.50;;;2.97;;
62582;SDS011;48641;51.676;5.808;2023-03-26T05:45:05;8.40;;;3.10;;
62582;SDS011;48641;51.676;5.808;2023-03-26T05:47:32;6.68;;;2.63;;
62582;SDS011;48641;51.676;5.808;2023-03-26T05:49:58;8.10;;;3.28;;
62582;SDS011;48641;51.676;5.808;2023-03-26T05:52:24;7.97;;;3.10;;
62582;SDS011;48641;51.676;5.808;2023-03-26T05:54:50;8.00;;;3.10;;
62582;SDS011;48641;51.676;5.808;2023-03-26T05:57:15;8.98;;;3.03;;
62582;SDS011;48641;51.676;5.808;2023-03-26T05:59:42;7.22;;;2.95;;
62582;SDS011;48641;51.676;5.808;2023-03-26T06:02:08;8.30;;;2.97;;
62582;SDS011;48641;51.676;5.808;2023-03-26T06:04:34;7.53;;;2.75;;
62582;SDS011;48641;51.676;5.808;2023-03-26T06:07:04;7.07;;;2.50;;
62582;SDS011;48641;51.676;5.808;2023-03-26T06:09:34;8.95;;;2.63;;
62582;SDS011;48641;51.676;5.808;2023-03-26T06:12:07;8.63;;;2.72;;
62582;SDS011;48641;51.676;5.808;2023-03-26T06:14:33;7.18;;;2.70;;
62582;SDS011;48641;51.676;5.808;2023-03-26T06:17:00;7.30;;;2.90;;
62582;SDS011;48641;51.676;5.808;2023-03-26T06:19:25;6.90;;;2.65;;
62582;SDS011;48641;51.676;5.808;2023-03-26T06:21:51;8.23;;;2.70;;
62582;SDS011;48641;51.676;5.808;2023-03-26T06:24:16;7.45;;;2.65;;
62582;SDS011;48641;51.676;5.808;2023-03-26T06:26:43;7.75;;;2.92;;
62582;SDS011;48641;51.676;5.808;2023-03-26T06:29:10;7.40;;;2.90;;
62582;SDS011;48641;51.676;5.808;2023-03-26T06:31:36;7.45;;;2.47;;
62582;SDS011;48641;51.676;5.808;2023-03-26T06:34:01;6.20;;;2.65;;
62582;SDS011;48641;51.676;5.808;2023-03-26T06:36:27;9.18;;;3.00;;
62582;SDS011;48641;51.676;5.808;2023-03-26T06:38:52;7.15;;;2.90;;
62582;SDS011;48641;51.676;5.808;2023-03-26T06:41:18;8.43;;;2.85;;
62582;SDS011;48641;51.676;5.808;2023-03-26T06:43:44;7.10;;;2.50;;
62582;SDS011;48641;51.676;5.808;2023-03-26T06:46:09;7.93;;;2.83;;
62582;SDS011;48641;51.676;5.808;2023-03-26T06:48:35;6.85;;;2.30;;
62582;SDS011;48641;51.676;5.808;2023-03-26T06:51:01;7.32;;;2.72;;
62582;SDS011;48641;51.676;5.808;2023-03-26T06:53:27;7.03;;;2.67;;
62582;SDS011;48641;51.676;5.808;2023-03-26T06:55:53;7.25;;;2.78;;
62582;SDS011;48641;51.676;5.808;2023-03-26T06:58:19;7.97;;;2.55;;
62582;SDS011;48641;51.676;5.808;2023-03-26T07:00:45;6.18;;;2.28;;
62582;SDS011;48641;51.676;5.808;2023-03-26T07:03:11;7.13;;;2.97;;
62582;SDS011;48641;51.676;5.808;2023-03-26T07:05:37;7.75;;;2.58;;
62582;SDS011;48641;51.676;5.808;2023-03-26T07:08:05;7.65;;;2.42;;
62582;SDS011;48641;51.676;5.808;2023-03-26T07:10:30;6.32;;;2.30;;
62582;SDS011;48641;51.676;5.808;2023-03-26T07:12:59;7.38;;;2.35;;
62582;SDS011;48641;51.676;5.808;2023-03-26T07:15:26;7.40;;;2.50;;
62582;SDS011;48641;51.676;5.808;2023-03-26T07:17:52;5.82;;;2.22;;
62582;SDS011;48641;51.676;5.808;2023-03-26T07:20:18;7.28;;;2.70;;
62582;SDS011;48641;51.676;5.808;2023-03-26T07:22:44;9.13;;;2.80;;
62582;SDS011;48641;51.676;5.808;2023-03-26T07:25:10;7.03;;;2.30;;
62582;SDS011;48641;51.676;5.808;2023-03-26T07:33:23;5.97;;;2.30;;
62582;SDS011;48641;51.676;5.808;2023-03-26T07:39:24;7.68;;;2.50;;
62582;SDS011;48641;51.676;5.808;2023-03-26T07:42:29;9.10;;;2.65;;
62582;SDS011;48641;51.676;5.808;2023-03-26T07:45:14;7.13;;;2.40;;
62582;SDS011;48641;51.676;5.808;2023-03-26T07:48:01;7.75;;;2.17;;
62582;SDS011;48641;51.676;5.808;2023-03-26T07:50:28;5.68;;;2.00;;
62582;SDS011;48641;51.676;5.808;2023-03-26T07:52:54;7.18;;;2.25;;
62582;SDS011;48641;51.676;5.808;2023-03-26T07:55:20;6.65;;;2.25;;
62582;SDS011;48641;51.676;5.808;2023-03-26T07:57:50;6.68;;;2.15;;
62582;SDS011;48641;51.676;5.808;2023-03-26T08:00:46;6.95;;;2.10;;
62582;SDS011;48641;51.676;5.808;2023-03-26T08:06:36;6.63;;;2.28;;
62582;SDS011;48641;51.676;5.808;2023-03-26T08:11:53;6.78;;;2.22;;
62582;SDS011;48641;51.676;5.808;2023-03-26T08:22:33;6.93;;;2.13;;
62582;SDS011;48641;51.676;5.808;2023-03-26T08:28:07;6.25;;;2.22;;
62582;SDS011;48641;51.676;5.808;2023-03-26T08:31:07;6.38;;;2.28;;
62582;SDS011;48641;51.676;5.808;2023-03-26T08:33:35;6.28;;;2.08;;
62582;SDS011;48641;51.676;5.808;2023-03-26T08:36:01;6.95;;;2.03;;
62582;SDS011;48641;51.676;5.808;2023-03-26T08:38:26;6.53;;;2.05;;
62582;SDS011;48641;51.676;5.808;2023-03-26T08:43:53;5.75;;;2.17;;
62582;SDS011;48641;51.676;5.808;2023-03-26T08:55:33;4.82;;;1.90;;
62582;SDS011;48641;51.676;5.808;2023-03-26T09:03:38;6.15;;;1.92;;
62582;SDS011;48641;51.676;5.808;2023-03-26T09:29:06;5.95;;;2.00;;
62582;SDS011;48641;51.676;5.808;2023-03-26T09:42:12;4.50;;;1.60;;
62582;SDS011;48641;51.676;5.808;2023-03-26T09:44:49;5.13;;;1.80;;
62582;SDS011;48641;51.676;5.808;2023-03-26T09:47:41;5.55;;;1.70;;
62582;SDS011;48641;51.676;5.808;2023-03-26T09:52:57;5.30;;;1.90;;
62582;SDS011;48641;51.676;5.808;2023-03-26T09:58:14;5.80;;;1.88;;
62582;SDS011;48641;51.676;5.808;2023-03-26T10:01:23;5.10;;;1.70;;
62582;SDS011;48641;51.676;5.808;2023-03-26T10:17:09;5.55;;;1.88;;
62582;SDS011;48641;51.676;5.808;2023-03-26T10:34:06;4.95;;;1.60;;
62582;SDS011;48641;51.676;5.808;2023-03-26T10:36:47;5.60;;;1.80;;
62582;SDS011;48641;51.676;5.808;2023-03-26T10:50:56;4.15;;;1.23;;
62582;SDS011;48641;51.676;5.808;2023-03-26T10:53:50;3.58;;;1.50;;
62582;SDS011;48641;51.676;5.808;2023-03-26T10:56:30;5.20;;;1.70;;
62582;SDS011;48641;51.676;5.808;2023-03-26T10:59:00;3.92;;;1.50;;
62582;SDS011;48641;51.676;5.808;2023-03-26T11:01:34;4.50;;;1.55;;
62582;SDS011;48641;51.676;5.808;2023-03-26T11:12:12;4.15;;;1.60;;
62582;SDS011;48641;51.676;5.808;2023-03-26T11:14:45;3.92;;;1.50;;
62582;SDS011;48641;51.676;5.808;2023-03-26T11:17:21;4.03;;;1.40;;
62582;SDS011;48641;51.676;5.808;2023-03-26T11:21:00;5.25;;;1.75;;
62582;SDS011;48641;51.676;5.808;2023-03-26T11:30:54;4.30;;;1.45;;
62582;SDS011;48641;51.676;5.808;2023-03-26T11:33:34;3.45;;;1.13;;
62582;SDS011;48641;51.676;5.808;2023-03-26T11:36:12;5.78;;;1.70;;
62582;SDS011;48641;51.676;5.808;2023-03-26T11:38:56;3.92;;;1.17;;
62582;SDS011;48641;51.676;5.808;2023-03-26T11:46:41;5.63;;;1.65;;
62582;SDS011;48641;51.676;5.808;2023-03-26T11:49:10;3.33;;;1.20;;
62582;SDS011;48641;51.676;5.808;2023-03-26T11:51:40;3.72;;;1.25;;
62582;SDS011;48641;51.676;5.808;2023-03-26T11:54:08;4.82;;;1.50;;
62582;SDS011;48641;51.676;5.808;2023-03-26T11:59:35;3.88;;;1.38;;
62582;SDS011;48641;51.676;5.808;2023-03-26T12:04:49;3.72;;;1.40;;
62582;SDS011;48641;51.676;5.808;2023-03-26T12:07:29;2.97;;;1.17;;
62582;SDS011;48641;51.676;5.808;2023-03-26T12:09:57;4.43;;;1.50;;
62582;SDS011;48641;51.676;5.808;2023-03-26T12:12:39;3.33;;;1.23;;
62582;SDS011;48641;51.676;5.808;2023-03-26T12:15:16;2.55;;;1.20;;
62582;SDS011;48641;51.676;5.808;2023-03-26T12:17:44;4.53;;;1.33;;
62582;SDS011;48641;51.676;5.808;2023-03-26T12:20:29;4.05;;;1.38;;
62582;SDS011;48641;51.676;5.808;2023-03-26T12:22:58;3.75;;;1.13;;
62582;SDS011;48641;51.676;5.808;2023-03-26T12:27:56;3.88;;;1.40;;
62582;SDS011;48641;51.676;5.808;2023-03-26T12:30:35;3.55;;;1.30;;
62582;SDS011;48641;51.676;5.808;2023-03-26T12:33:04;4.13;;;1.20;;
62582;SDS011;48641;51.676;5.808;2023-03-26T12:35:32;3.00;;;1.10;;
62582;SDS011;48641;51.676;5.808;2023-03-26T12:38:13;5.25;;;1.40;;
62582;SDS011;48641;51.676;5.808;2023-03-26T12:40:40;3.55;;;1.20;;
62582;SDS011;48641;51.676;5.808;2023-03-26T12:43:28;2.80;;;1.13;;
62582;SDS011;48641;51.676;5.808;2023-03-26T12:45:55;3.10;;;1.23;;
62582;SDS011;48641;51.676;5.808;2023-03-26T12:48:24;4.00;;;1.40;;
62582;SDS011;48641;51.676;5.808;2023-03-26T12:55:58;3.42;;;1.30;;
62582;SDS011;48641;51.676;5.808;2023-03-26T13:06:41;3.53;;;1.30;;
62582;SDS011;48641;51.676;5.808;2023-03-26T13:17:34;2.47;;;1.05;;
62582;SDS011;48641;51.676;5.808;2023-03-26T13:31:13;3.10;;;1.20;;
62582;SDS011;48641;51.676;5.808;2023-03-26T13:34:06;3.60;;;0.98;;
62582;SDS011;48641;51.676;5.808;2023-03-26T13:39:52;2.97;;;1.00;;
62582;SDS011;48641;51.676;5.808;2023-03-26T13:42:25;3.78;;;1.17;;
62582;SDS011;48641;51.676;5.808;2023-03-26T13:47:32;3.65;;;1.20;;
62582;SDS011;48641;51.676;5.808;2023-03-26T13:50:02;3.45;;;1.02;;
62582;SDS011;48641;51.676;5.808;2023-03-26T13:52:52;3.53;;;1.10;;
62582;SDS011;48641;51.676;5.808;2023-03-26T13:55:33;3.95;;;1.40;;
62582;SDS011;48641;51.676;5.808;2023-03-26T14:14:43;2.28;;;1.00;;
62582;SDS011;48641;51.676;5.808;2023-03-26T14:17:32;2.75;;;0.95;;
62582;SDS011;48641;51.676;5.808;2023-03-26T14:20:22;4.53;;;1.33;;
62582;SDS011;48641;51.676;5.808;2023-03-26T14:43:02;3.78;;;1.20;;
62582;SDS011;48641;51.676;5.808;2023-03-26T14:53:55;2.33;;;1.00;;
62582;SDS011;48641;51.676;5.808;2023-03-26T14:56:38;7.50;;;1.27;;
62582;SDS011;48641;51.676;5.808;2023-03-26T15:19:50;3.60;;;1.00;;
62582;SDS011;48641;51.676;5.808;2023-03-26T15:33:43;4.50;;;1.10;;
62582;SDS011;48641;51.676;5.808;2023-03-26T15:39:32;4.45;;;1.20;;
62582;SDS011;48641;51.676;5.808;2023-03-26T15:45:29;3.95;;;1.23;;
62582;SDS011;48641;51.676;5.808;2023-03-26T16:21:54;2.75;;;0.90;;
62582;SDS011;48641;51.676;5.808;2023-03-26T16:24:36;2.40;;;0.90;;
62582;SDS011;48641;51.676;5.808;2023-03-26T16:32:32;1.95;;;0.80;;
62582;SDS011;48641;51.676;5.808;2023-03-26T16:37:35;2.03;;;0.80;;
62582;SDS011;48641;51.676;5.808;2023-03-26T16:40:32;2.45;;;0.98;;
62582;SDS011;48641;51.676;5.808;2023-03-26T17:00:33;1.95;;;0.80;;
62582;SDS011;48641;51.676;5.808;2023-03-26T17:17:05;2.42;;;1.00;;
62582;SDS011;48641;51.676;5.808;2023-03-26T17:19:50;3.08;;;1.00;;
62582;SDS011;48641;51.676;5.808;2023-03-26T17:27:55;4.97;;;0.98;;
62582;SDS011;48641;51.676;5.808;2023-03-26T17:30:37;2.90;;;0.93;;
62582;SDS011;48641;51.676;5.808;2023-03-26T17:33:28;1.85;;;0.75;;
62582;SDS011;48641;51.676;5.808;2023-03-26T17:41:08;3.83;;;1.00;;
62582;SDS011;48641;51.676;5.808;2023-03-26T17:43:43;3.85;;;1.00;;
62582;SDS011;48641;51.676;5.808;2023-03-26T17:52:44;2.72;;;0.98;;
62582;SDS011;48641;51.676;5.808;2023-03-26T17:54:46;1.73;;;0.80;;
62582;SDS011;48641;51.676;5.808;2023-03-26T17:57:17;2.55;;;0.82;;
62582;SDS011;48641;51.676;5.808;2023-03-26T17:59:56;1.38;;;0.70;;
62582;SDS011;48641;51.676;5.808;2023-03-26T18:02:30;2.67;;;0.90;;
62582;SDS011;48641;51.676;5.808;2023-03-26T18:05:03;2.70;;;0.85;;
62582;SDS011;48641;51.676;5.808;2023-03-26T18:07:50;2.38;;;0.88;;
62582;SDS011;48641;51.676;5.808;2023-03-26T18:10:46;4.30;;;1.15;;
62582;SDS011;48641;51.676;5.808;2023-03-26T18:16:20;2.38;;;0.90;;
62582;SDS011;48641;51.676;5.808;2023-03-26T18:19:01;2.70;;;0.95;;
62582;SDS011;48641;51.676;5.808;2023-03-26T18:21:36;3.78;;;1.10;;
62582;SDS011;48641;51.676;5.808;2023-03-26T18:24:04;3.92;;;0.98;;
62582;SDS011;48641;51.676;5.808;2023-03-26T18:26:32;2.30;;;0.80;;
62582;SDS011;48641;51.676;5.808;2023-03-26T18:29:12;2.38;;;0.90;;
62582;SDS011;48641;51.676;5.808;2023-03-26T18:34:22;2.20;;;0.80;;
62582;SDS011;48641;51.676;5.808;2023-03-26T18:36:56;3.08;;;0.90;;
62582;SDS011;48641;51.676;5.808;2023-03-26T18:39:25;3.05;;;1.15;;
62582;SDS011;48641;51.676;5.808;2023-03-26T18:41:51;3.45;;;0.85;;
62582;SDS011;48641;51.676;5.808;2023-03-26T18:44:17;3.30;;;0.80;;
62582;SDS011;48641;51.676;5.808;2023-03-26T18:46:44;1.98;;;0.80;;
62582;SDS011;48641;51.676;5.808;2023-03-26T18:49:13;2.00;;;0.75;;
62582;SDS011;48641;51.676;5.808;2023-03-26T18:51:40;2.20;;;0.80;;
62582;SDS011;48641;51.676;5.808;2023-03-26T18:54:08;3.67;;;0.85;;
62582;SDS011;48641;51.676;5.808;2023-03-26T18:56:39;3.78;;;0.90;;
62582;SDS011;48641;51.676;5.808;2023-03-26T19:01:52;2.15;;;0.63;;
62582;SDS011;48641;51.676;5.808;2023-03-26T19:04:26;1.77;;;0.70;;
62582;SDS011;48641;51.676;5.808;2023-03-26T19:06:55;3.05;;;0.90;;
62582;SDS011;48641;51.676;5.808;2023-03-26T19:09:21;1.75;;;0.82;;
62582;SDS011;48641;51.676;5.808;2023-03-26T19:11:49;2.10;;;0.80;;
62582;SDS011;48641;51.676;5.808;2023-03-26T19:14:19;3.45;;;0.90;;
62582;SDS011;48641;51.676;5.808;2023-03-26T19:16:47;4.25;;;0.95;;
62582;SDS011;48641;51.676;5.808;2023-03-26T19:19:20;1.42;;;0.73;;
62582;SDS011;48641;51.676;5.808;2023-03-26T19:21:47;3.17;;;0.80;;
62582;SDS011;48641;51.676;5.808;2023-03-26T19:24:14;2.38;;;0.73;;
62582;SDS011;48641;51.676;5.808;2023-03-26T19:26:42;3.47;;;1.00;;
62582;SDS011;48641;51.676;5.808;2023-03-26T19:29:11;3.90;;;0.90;;
62582;SDS011;48641;51.676;5.808;2023-03-26T19:31:51;3.00;;;0.80;;
62582;SDS011;48641;51.676;5.808;2023-03-26T19:39:32;3.60;;;0.93;;
62582;SDS011;48641;51.676;5.808;2023-03-26T19:42:04;2.80;;;0.80;;
62582;SDS011;48641;51.676;5.808;2023-03-26T19:44:31;3.13;;;0.80;;
62582;SDS011;48641;51.676;5.808;2023-03-26T19:47:17;1.67;;;0.70;;
62582;SDS011;48641;51.676;5.808;2023-03-26T19:49:54;2.35;;;0.95;;
62582;SDS011;48641;51.676;5.808;2023-03-26T21:28:30;5.05;;;1.10;;
62582;SDS011;48641;51.676;5.808;2023-03-26T21:31:18;2.45;;;0.82;;
62582;SDS011;48641;51.676;5.808;2023-03-26T21:33:46;3.80;;;1.00;;
62582;SDS011;48641;51.676;5.808;2023-03-26T21:36:13;5.05;;;1.20;;
62582;SDS011;48641;51.676;5.808;2023-03-26T21:38:40;3.97;;;0.90;;
62582;SDS011;48641;51.676;5.808;2023-03-26T22:27:48;4.40;;;0.95;;
62582;SDS011;48641;51.676;5.808;2023-03-26T22:30:15;5.80;;;1.35;;
62582;SDS011;48641;51.676;5.808;2023-03-26T22:32:42;3.25;;;0.95;;
62582;SDS011;48641;51.676;5.808;2023-03-26T22:35:08;4.78;;;1.20;;
62582;SDS011;48641;51.676;5.808;2023-03-26T22:37:34;5.15;;;1.10;;
62582;SDS011;48641;51.676;5.808;2023-03-26T22:40:01;2.50;;;0.82;;
62582;SDS011;48641;51.676;5.808;2023-03-26T22:42:30;3.55;;;0.82;;
62582;SDS011;48641;51.676;5.808;2023-03-26T22:44:56;4.70;;;1.02;;
62582;SDS011;48641;51.676;5.808;2023-03-26T22:47:22;4.68;;;1.00;;
62582;SDS011;48641;51.676;5.808;2023-03-26T22:49:48;3.72;;;1.00;;
62582;SDS011;48641;51.676;5.808;2023-03-26T22:52:15;5.72;;;1.05;;
62582;SDS011;48641;51.676;5.808;2023-03-26T22:54:41;4.00;;;1.10;;
62582;SDS011;48641;51.676;5.808;2023-03-26T22:57:06;3.22;;;0.90;;
62582;SDS011;48641;51.676;5.808;2023-03-26T22:59:32;3.92;;;0.98;;
62582;SDS011;48641;51.676;5.808;2023-03-26T23:01:57;4.25;;;0.95;;
62582;SDS011;48641;51.676;5.808;2023-03-26T23:04:23;4.30;;;0.90;;
62582;SDS011;48641;51.676;5.808;2023-03-26T23:06:55;3.05;;;0.90;;
62582;SDS011;48641;51.676;5.808;2023-03-26T23:09:20;3.88;;;2.00;;
62582;SDS011;48641;51.676;5.808;2023-03-26T23:11:47;4.78;;;1.10;;
62582;SDS011;48641;51.676;5.808;2023-03-26T23:14:12;3.78;;;0.90;;
62582;SDS011;48641;51.676;5.808;2023-03-26T23:16:38;2.78;;;0.82;;
62582;SDS011;48641;51.676;5.808;2023-03-26T23:19:04;3.20;;;0.85;;
62582;SDS011;48641;51.676;5.808;2023-03-26T23:21:30;4.30;;;0.93;;
62582;SDS011;48641;51.676;5.808;2023-03-26T23:23:56;3.90;;;0.80;;
62582;SDS011;48641;51.676;5.808;2023-03-26T23:26:22;3.33;;;0.98;;
62582;SDS011;48641;51.676;5.808;2023-03-26T23:28:48;2.75;;;1.10;;
62582;SDS011;48641;51.676;5.808;2023-03-26T23:31:15;3.10;;;0.88;;
62582;SDS011;48641;51.676;5.808;2023-03-26T23:33:41;4.32;;;1.00;;
62582;SDS011;48641;51.676;5.808;2023-03-26T23:36:10;4.95;;;1.05;;
62582;SDS011;48641;51.676;5.808;2023-03-26T23:38:37;2.95;;;0.85;;
62582;SDS011;48641;51.676;5.808;2023-03-26T23:41:03;3.85;;;1.08;;
62582;SDS011;48641;51.676;5.808;2023-03-26T23:43:30;3.47;;;0.90;;
62582;SDS011;48641;51.676;5.808;2023-03-26T23:45:56;4.07;;;0.98;;
62582;SDS011;48641;51.676;5.808;2023-03-26T23:48:23;3.33;;;0.85;;
62582;SDS011;48641;51.676;5.808;2023-03-26T23:50:53;2.92;;;0.90;;
62582;SDS011;48641;51.676;5.808;2023-03-26T23:53:20;3.50;;;0.80;;
62582;SDS011;48641;51.676;5.808;2023-03-26T23:55:49;4.22;;;0.90;;
62582;SDS011;48641;51.676;5.808;2023-03-26T23:58:18;5.20;;;1.00;;
